createdAt,value
2019-04-26T00:02:34.820Z,18.40
2019-04-26T00:05:03.939Z,18.40
2019-04-26T00:07:32.747Z,18.40
2019-04-26T00:10:03.125Z,18.40
2019-04-26T00:12:51.647Z,18.40
2019-04-26T00:15:28.098Z,18.40
2019-04-26T00:17:58.815Z,18.40
2019-04-26T00:20:27.560Z,18.30
2019-04-26T00:22:56.300Z,18.30
2019-04-26T00:25:25.037Z,18.20
2019-04-26T00:27:53.802Z,18.20
2019-04-26T00:30:22.624Z,18.20
2019-04-26T00:32:51.390Z,18.20
2019-04-26T00:35:20.237Z,18.30
2019-04-26T00:37:48.980Z,18.20
2019-04-26T00:40:18.286Z,18.20
2019-04-26T00:42:47.145Z,18.20
2019-04-26T00:45:16.748Z,18.20
2019-04-26T00:47:45.810Z,18.20
2019-04-26T00:50:17.130Z,18.10
2019-04-26T00:52:46.505Z,18.10
2019-04-26T00:55:15.593Z,18.10
2019-04-26T00:57:44.839Z,18.00
2019-04-26T01:00:16.863Z,18.00
2019-04-26T01:02:48.077Z,18.00
2019-04-26T01:05:17.082Z,18.00
2019-04-26T01:07:47.566Z,18.10
2019-04-26T01:10:17.658Z,18.00
2019-04-26T01:12:46.562Z,18.10
2019-04-26T01:15:17.089Z,18.00
2019-04-26T01:17:45.851Z,18.00
2019-04-26T01:20:16.119Z,18.00
2019-04-26T01:22:48.383Z,18.00
2019-04-26T01:25:35.026Z,17.90
2019-04-26T01:28:06.536Z,17.90
2019-04-26T01:30:36.925Z,17.80
2019-04-26T01:33:07.175Z,17.80
2019-04-26T01:35:36.199Z,17.80
2019-04-26T01:38:07.660Z,17.80
2019-04-26T01:40:37.591Z,17.60
2019-04-26T01:43:07.975Z,17.70
2019-04-26T01:45:40.990Z,17.60
2019-04-26T01:48:39.477Z,17.60
2019-04-26T01:51:11.108Z,17.60
2019-04-26T01:53:40.351Z,17.50
2019-04-26T01:56:09.092Z,17.50
2019-04-26T01:58:37.850Z,17.40
2019-04-26T02:01:14.241Z,17.30
2019-04-26T02:03:43.192Z,17.30
2019-04-26T02:06:19.563Z,17.20
2019-04-26T02:08:42.602Z,17.20
2019-04-26T02:11:11.332Z,17.10
2019-04-26T02:13:40.028Z,17.00
2019-04-26T02:16:08.927Z,17.00
2019-04-26T02:18:37.675Z,16.90
2019-04-26T02:21:08.942Z,16.90
2019-04-26T02:23:48.716Z,16.80
2019-04-26T02:26:34.880Z,16.80
2019-04-26T02:29:11.577Z,16.70
2019-04-26T02:31:42.826Z,16.70
2019-04-26T02:34:12.054Z,16.60
2019-04-26T02:36:56.437Z,16.60
2019-04-26T02:39:16.991Z,16.50
2019-04-26T02:41:47.891Z,16.50
2019-04-26T02:44:21.834Z,16.40
2019-04-26T02:46:56.602Z,16.40
2019-04-26T02:49:38.548Z,16.30
2019-04-26T02:52:29.717Z,16.30
2019-04-26T02:55:07.976Z,16.30
2019-04-26T02:57:39.655Z,16.20
2019-04-26T03:00:17.243Z,16.20
2019-04-26T03:02:48.908Z,16.10
2019-04-26T03:05:18.613Z,16.10
2019-04-26T03:07:52.986Z,16.10
2019-04-26T03:10:24.762Z,16.10
2019-04-26T03:12:55.965Z,16.10
2019-04-26T03:15:45.719Z,16.10
2019-04-26T03:18:35.557Z,16.10
2019-04-26T03:21:22.520Z,16.20
2019-04-26T03:24:00.166Z,16.20
2019-04-26T03:26:35.657Z,16.20
2019-04-26T03:29:14.101Z,16.10
2019-04-26T03:31:55.571Z,16.10
2019-04-26T03:34:53.088Z,16.10
2019-04-26T03:37:35.742Z,16.10
2019-04-26T03:40:14.841Z,16.10
2019-04-26T03:43:03.826Z,16.20
2019-04-26T03:45:57.781Z,16.20
2019-04-26T03:48:29.487Z,16.20
2019-04-26T03:51:10.070Z,16.20
2019-04-26T03:53:50.752Z,16.20
2019-04-26T03:56:28.239Z,16.30
2019-04-26T03:59:02.181Z,16.10
2019-04-26T04:01:39.439Z,16.20
2019-04-26T04:04:28.755Z,16.20
2019-04-26T04:07:04.796Z,16.20
2019-04-26T04:09:31.879Z,16.30
2019-04-26T04:12:11.437Z,16.30
2019-04-26T04:15:06.303Z,16.30
2019-04-26T04:17:45.318Z,16.30
2019-04-26T04:20:31.740Z,16.30
2019-04-26T04:23:09.485Z,16.30
2019-04-26T04:25:42.155Z,16.30
2019-04-26T04:28:32.638Z,16.30
2019-04-26T04:31:25.595Z,16.40
2019-04-26T04:34:00.426Z,16.50
2019-04-26T04:36:32.098Z,16.60
2019-04-26T04:39:15.779Z,16.70
2019-04-26T04:42:04.014Z,16.80
2019-04-26T04:44:59.694Z,16.80
2019-04-26T04:47:33.187Z,16.80
2019-04-26T04:50:08.993Z,16.70
2019-04-26T04:52:52.377Z,16.70
2019-04-26T04:55:42.854Z,16.80
2019-04-26T04:58:16.472Z,16.60
2019-04-26T05:01:09.382Z,16.60
2019-04-26T05:03:49.691Z,16.60
2019-04-26T05:06:37.911Z,16.50
2019-04-26T05:09:09.921Z,16.60
2019-04-26T05:11:52.371Z,16.70
2019-04-26T05:14:35.995Z,16.80
2019-04-26T05:17:25.875Z,17.00
2019-04-26T05:19:57.602Z,17.20
2019-04-26T05:22:51.204Z,17.20
2019-04-26T05:25:53.446Z,17.40
2019-04-26T05:28:31.055Z,17.50
2019-04-26T05:31:22.789Z,17.60
2019-04-26T05:34:02.338Z,17.60
2019-04-26T05:36:31.768Z,17.60
2019-04-26T05:39:01.321Z,17.70
2019-04-26T05:41:42.163Z,17.70
2019-04-26T05:44:33.576Z,17.80
2019-04-26T05:47:24.848Z,17.80
2019-04-26T05:50:27.958Z,17.90
2019-04-26T05:53:17.826Z,17.90
2019-04-26T05:56:23.027Z,18.00
2019-04-26T05:59:06.535Z,18.10
2019-04-26T06:01:52.040Z,18.20
2019-04-26T06:04:53.540Z,18.30
2019-04-26T06:07:32.439Z,18.40
2019-04-26T06:10:14.505Z,18.50
2019-04-26T06:13:04.258Z,18.60
2019-04-26T06:15:49.128Z,18.70
2019-04-26T06:18:31.092Z,18.80
2019-04-26T06:21:05.798Z,18.80
2019-04-26T06:23:55.703Z,18.90
2019-04-26T06:27:09.264Z,19.00
2019-04-26T06:29:45.388Z,19.10
2019-04-26T06:32:32.266Z,19.00
2019-04-26T06:35:22.341Z,19.20
2019-04-26T06:38:07.325Z,19.30
2019-04-26T06:40:47.982Z,19.30
2019-04-26T06:43:21.313Z,19.50
2019-04-26T06:46:03.353Z,19.70
2019-04-26T06:48:42.573Z,19.70
2019-04-26T06:51:24.708Z,19.80
2019-04-26T06:54:06.421Z,19.80
2019-04-26T06:56:51.787Z,19.80
2019-04-26T06:59:41.470Z,19.80
2019-04-26T07:02:25.328Z,20.00
2019-04-26T07:05:02.908Z,20.10
2019-04-26T07:07:46.682Z,20.20
2019-04-26T07:10:33.296Z,20.30
2019-04-26T07:13:36.162Z,20.40
2019-04-26T07:16:22.809Z,20.50
2019-04-26T07:18:52.563Z,20.60
2019-04-26T07:21:34.582Z,20.70
2019-04-26T07:24:36.654Z,20.80
2019-04-26T07:27:17.256Z,20.80
2019-04-26T07:29:51.526Z,20.80
2019-04-26T07:32:42.828Z,20.90
2019-04-26T07:35:23.138Z,21.10
2019-04-26T07:38:11.192Z,21.10
2019-04-26T07:40:56.704Z,21.30
2019-04-26T07:43:42.158Z,21.30
2019-04-26T07:46:25.132Z,21.30
2019-04-26T07:49:14.952Z,21.30
2019-04-26T07:52:02.832Z,21.40
2019-04-26T07:54:43.440Z,21.40
2019-04-26T07:57:22.440Z,21.50
2019-04-26T08:00:14.055Z,21.50
2019-04-26T08:02:56.359Z,21.60
2019-04-26T08:05:38.627Z,21.80
2019-04-26T08:08:10.826Z,22.00
2019-04-26T08:10:42.451Z,22.10
2019-04-26T08:13:16.686Z,22.30
2019-04-26T08:16:18.036Z,22.50
2019-04-26T08:18:53.978Z,22.50
2019-04-26T08:21:27.140Z,22.60
2019-04-26T08:24:06.246Z,22.90
2019-04-26T08:26:38.159Z,23.00
2019-04-26T08:29:10.505Z,23.30
2019-04-26T08:31:42.666Z,23.40
2019-04-26T08:34:16.669Z,23.40
2019-04-26T08:36:48.471Z,23.80
2019-04-26T08:39:24.612Z,23.90
2019-04-26T08:41:53.389Z,24.00
2019-04-26T08:44:29.541Z,24.30
2019-04-26T08:47:00.919Z,24.30
2019-04-26T08:49:39.960Z,24.50
2019-04-26T08:52:14.373Z,24.60
2019-04-26T08:54:43.349Z,25.00
2019-04-26T08:57:14.688Z,25.20
2019-04-26T08:59:49.102Z,25.30
2019-04-26T09:02:31.850Z,25.60
2019-04-26T09:05:21.387Z,25.80
2019-04-26T09:07:53.505Z,26.00
2019-04-26T09:10:26.088Z,26.40
2019-04-26T09:12:58.026Z,26.60
2019-04-26T09:15:47.415Z,26.70
2019-04-26T09:18:16.211Z,26.60
2019-04-26T09:20:45.067Z,27.00
2019-04-26T09:23:39.817Z,27.20
2019-04-26T09:26:03.694Z,27.50
2019-04-26T09:28:34.034Z,27.60
2019-04-26T09:31:07.119Z,27.90
2019-04-26T09:33:46.104Z,27.90
2019-04-26T09:36:14.083Z,28.20
2019-04-26T09:38:42.811Z,28.40
2019-04-26T09:41:11.571Z,28.60
2019-04-26T09:43:44.718Z,28.90
2019-04-26T09:46:15.086Z,28.70
2019-04-26T09:48:51.215Z,29.00
2019-04-26T09:51:20.039Z,29.20
2019-04-26T09:53:48.770Z,29.70
2019-04-26T09:56:17.591Z,29.80
2019-04-26T09:58:46.374Z,29.30
2019-04-26T10:01:15.188Z,29.10
2019-04-26T10:03:43.933Z,29.80
2019-04-26T10:06:12.673Z,30.50
2019-04-26T10:08:43.366Z,30.20
2019-04-26T10:11:13.444Z,30.40
2019-04-26T10:13:52.427Z,31.00
2019-04-26T10:16:25.806Z,31.30
2019-04-26T10:18:58.301Z,31.40
2019-04-26T10:21:26.566Z,31.90
2019-04-26T10:23:55.316Z,32.10
2019-04-26T10:26:28.137Z,31.80
2019-04-26T10:28:54.512Z,31.40
2019-04-26T10:31:22.403Z,31.00
2019-04-26T10:33:51.224Z,30.50
2019-04-26T10:36:19.104Z,30.40
2019-04-26T10:38:47.831Z,30.70
2019-04-26T10:41:17.051Z,31.10
2019-04-26T10:43:45.790Z,30.90
2019-04-26T10:46:14.599Z,30.40
2019-04-26T10:48:45.532Z,30.50
2019-04-26T10:51:14.979Z,31.40
2019-04-26T10:53:57.361Z,31.30
2019-04-26T10:56:30.713Z,31.80
2019-04-26T10:59:01.076Z,32.30
2019-04-26T11:01:30.158Z,32.80
2019-04-26T11:03:58.882Z,33.60
2019-04-26T11:06:27.899Z,33.70
2019-04-26T11:08:57.115Z,33.40
2019-04-26T11:11:25.018Z,32.20
2019-04-26T11:13:53.811Z,31.90
2019-04-26T11:16:22.069Z,31.30
2019-04-26T11:18:50.824Z,30.80
2019-04-26T11:21:21.010Z,30.50
2019-04-26T11:23:50.034Z,30.10
2019-04-26T11:26:19.061Z,29.90
2019-04-26T11:28:51.363Z,29.50
2019-04-26T11:31:18.204Z,29.20
2019-04-26T11:33:49.559Z,28.90
2019-04-26T11:36:17.296Z,28.80
2019-04-26T11:38:46.120Z,28.80
2019-04-26T11:41:14.849Z,28.80
2019-04-26T11:43:43.598Z,28.80
2019-04-26T11:46:12.376Z,28.70
2019-04-26T11:48:41.142Z,28.50
2019-04-26T11:51:09.878Z,28.50
2019-04-26T11:53:44.413Z,28.60
2019-04-26T11:56:09.047Z,28.20
2019-04-26T11:58:37.779Z,28.40
2019-04-26T12:01:08.161Z,28.20
2019-04-26T12:03:36.898Z,28.40
2019-04-26T12:06:23.466Z,28.20
2019-04-26T12:08:59.379Z,28.30
2019-04-26T12:11:34.150Z,28.10
2019-04-26T12:13:59.454Z,28.20
2019-04-26T12:16:29.076Z,28.20
2019-04-26T12:18:57.854Z,28.20
2019-04-26T12:21:30.178Z,28.20
2019-04-26T12:23:57.021Z,28.20
2019-04-26T12:26:25.719Z,28.10
2019-04-26T12:28:54.459Z,28.00
2019-04-26T12:31:23.218Z,28.10
2019-04-26T12:33:51.938Z,28.00
2019-04-26T12:36:20.752Z,28.00
2019-04-26T12:38:49.502Z,27.90
2019-04-26T12:41:25.240Z,27.60
2019-04-26T12:43:48.729Z,27.50
2019-04-26T12:46:27.287Z,27.60
2019-04-26T12:48:54.703Z,27.50
2019-04-26T12:51:23.517Z,27.30
2019-04-26T12:53:52.279Z,27.20
2019-04-26T12:56:21.054Z,27.10
2019-04-26T12:58:50.234Z,27.00
2019-04-26T13:01:25.526Z,26.90
2019-04-26T13:04:10.980Z,26.90
2019-04-26T13:06:45.390Z,26.90
2019-04-26T13:09:21.737Z,26.90
2019-04-26T13:12:10.701Z,26.70
2019-04-26T13:14:45.475Z,26.10
2019-04-26T13:17:15.846Z,25.80
2019-04-26T13:19:44.646Z,25.50
2019-04-26T13:22:13.976Z,25.20
2019-04-26T13:24:42.999Z,24.70
2019-04-26T13:27:12.442Z,24.60
2019-04-26T13:29:41.171Z,24.50
2019-04-26T13:32:09.950Z,24.50
2019-04-26T13:34:39.175Z,24.50
2019-04-26T13:37:07.958Z,24.40
2019-04-26T13:39:37.008Z,24.50
2019-04-26T13:42:09.362Z,24.80
2019-04-26T13:44:54.886Z,24.90
2019-04-26T13:47:32.762Z,25.00
2019-04-26T13:50:04.520Z,25.00
2019-04-26T13:52:34.510Z,25.10
2019-04-26T13:55:05.321Z,25.20
2019-04-26T13:57:34.430Z,25.30
2019-04-26T14:00:06.505Z,25.40
2019-04-26T14:02:32.903Z,25.40
2019-04-26T14:05:01.621Z,25.40
2019-04-26T14:07:30.460Z,25.50
2019-04-26T14:10:01.245Z,25.50
2019-04-26T14:12:30.890Z,25.50
2019-04-26T14:15:04.549Z,25.60
2019-04-26T14:17:34.011Z,25.60
2019-04-26T14:20:02.736Z,25.70
2019-04-26T14:22:37.049Z,25.70
2019-04-26T14:25:11.201Z,25.70
2019-04-26T14:27:52.784Z,25.70
2019-04-26T14:30:22.618Z,25.70
2019-04-26T14:32:53.114Z,25.70
2019-04-26T14:35:23.267Z,25.70
2019-04-26T14:37:52.048Z,25.70
2019-04-26T14:40:20.844Z,25.70
2019-04-26T14:43:05.458Z,25.80
2019-04-26T14:45:23.948Z,25.80
2019-04-26T14:47:52.017Z,25.80
2019-04-26T14:50:20.762Z,25.80
2019-04-26T14:52:49.573Z,25.80
2019-04-26T14:55:21.071Z,25.80
2019-04-26T14:57:51.387Z,25.70
2019-04-26T15:00:22.395Z,25.50
2019-04-26T15:02:56.019Z,25.40
2019-04-26T15:05:27.335Z,25.30
2019-04-26T15:07:56.057Z,25.20
2019-04-26T15:10:26.435Z,25.20
2019-04-26T15:13:11.442Z,25.10
2019-04-26T15:15:27.073Z,24.90
2019-04-26T15:17:59.492Z,24.90
2019-04-26T15:20:26.604Z,24.80
2019-04-26T15:22:55.430Z,24.80
2019-04-26T15:25:24.229Z,24.80
2019-04-26T15:27:52.989Z,24.70
2019-04-26T15:30:22.310Z,24.70
2019-04-26T15:32:52.916Z,24.70
2019-04-26T15:35:23.178Z,24.50
2019-04-26T15:37:53.477Z,24.40
2019-04-26T15:40:43.290Z,24.40
2019-04-26T15:43:14.920Z,24.40
2019-04-26T15:45:45.723Z,24.40
2019-04-26T15:48:32.646Z,24.40
2019-04-26T15:51:02.762Z,24.40
2019-04-26T15:53:33.071Z,24.30
2019-04-26T15:56:02.549Z,24.10
2019-04-26T15:58:31.482Z,23.80
2019-04-26T16:01:00.438Z,23.90
2019-04-26T16:03:29.177Z,23.70
2019-04-26T16:05:59.135Z,23.50
2019-04-26T16:08:28.292Z,23.40
2019-04-26T16:10:57.052Z,23.40
2019-04-26T16:13:25.831Z,23.50
2019-04-26T16:15:54.552Z,23.50
2019-04-26T16:18:23.349Z,23.60
2019-04-26T16:20:53.344Z,23.60
2019-04-26T16:23:22.391Z,23.70
2019-04-26T16:25:52.733Z,23.90
2019-04-26T16:28:30.858Z,24.10
2019-04-26T16:31:02.466Z,24.30
2019-04-26T16:33:36.090Z,25.10
2019-04-26T16:36:06.128Z,26.00
2019-04-26T16:38:36.128Z,26.10
2019-04-26T16:41:05.950Z,26.10
2019-04-26T16:43:40.250Z,25.90
2019-04-26T16:46:06.259Z,25.70
2019-04-26T16:48:35.594Z,25.60
2019-04-26T16:51:08.289Z,25.30
2019-04-26T16:53:46.386Z,25.10
2019-04-26T16:56:05.319Z,24.80
2019-04-26T16:58:38.170Z,24.60
2019-04-26T17:01:09.741Z,24.50
2019-04-26T17:03:38.166Z,24.30
2019-04-26T17:06:10.845Z,24.10
2019-04-26T17:08:42.870Z,23.90
2019-04-26T17:11:06.271Z,23.70
2019-04-26T17:13:42.843Z,23.60
2019-04-26T17:16:05.497Z,23.50
2019-04-26T17:18:34.248Z,23.40
2019-04-26T17:21:03.041Z,23.30
2019-04-26T17:23:33.475Z,23.20
2019-04-26T17:26:15.784Z,23.10
2019-04-26T17:28:44.589Z,23.00
2019-04-26T17:31:13.399Z,22.80
2019-04-26T17:33:42.216Z,22.80
2019-04-26T17:36:11.528Z,22.70
2019-04-26T17:38:42.072Z,22.60
2019-04-26T17:41:13.437Z,22.50
2019-04-26T17:43:46.952Z,22.40
2019-04-26T17:46:14.546Z,22.30
2019-04-26T17:48:44.765Z,22.30
2019-04-26T17:51:18.826Z,22.20
2019-04-26T17:53:44.070Z,22.10
2019-04-26T17:56:13.592Z,22.10
2019-04-26T17:58:51.191Z,22.00
2019-04-26T18:01:12.180Z,21.90
2019-04-26T18:03:50.875Z,21.90
2019-04-26T18:06:14.110Z,21.80
2019-04-26T18:08:51.918Z,21.70
2019-04-26T18:11:19.709Z,21.70
2019-04-26T18:13:47.226Z,21.60
2019-04-26T18:16:17.787Z,21.50
2019-04-26T18:18:53.591Z,21.50
2019-04-26T18:21:34.418Z,21.40
2019-04-26T18:24:03.235Z,21.40
2019-04-26T18:26:32.784Z,21.30
2019-04-26T18:29:03.711Z,21.20
2019-04-26T18:31:33.679Z,21.20
2019-04-26T18:34:04.036Z,21.10
2019-04-26T18:36:33.294Z,21.00
2019-04-26T18:39:03.887Z,21.00
2019-04-26T18:41:33.920Z,20.90
2019-04-26T18:44:03.299Z,20.90
2019-04-26T18:46:50.013Z,20.80
2019-04-26T18:49:32.993Z,20.70
2019-04-26T18:52:03.606Z,20.70
2019-04-26T18:54:34.614Z,20.70
2019-04-26T18:57:03.600Z,20.60
2019-04-26T18:59:34.023Z,20.60
2019-04-26T19:02:03.969Z,20.60
2019-04-26T19:04:33.611Z,20.60
2019-04-26T19:07:02.543Z,20.50
2019-04-26T19:09:36.859Z,20.40
2019-04-26T19:12:01.813Z,20.40
2019-04-26T19:14:49.884Z,20.30
2019-04-26T19:17:35.947Z,20.30
2019-04-26T19:20:20.138Z,20.20
2019-04-26T19:22:53.212Z,20.20
2019-04-26T19:25:23.314Z,20.10
2019-04-26T19:27:53.881Z,20.10
2019-04-26T19:30:22.082Z,20.00
2019-04-26T19:32:53.586Z,20.00
2019-04-26T19:35:21.911Z,20.00
2019-04-26T19:37:51.752Z,19.90
2019-04-26T19:40:20.703Z,19.90
2019-04-26T19:42:53.680Z,19.80
2019-04-26T19:45:24.177Z,19.80
2019-04-26T19:47:54.605Z,19.80
2019-04-26T19:50:42.003Z,19.70
2019-04-26T19:53:10.342Z,19.70
2019-04-26T19:55:57.383Z,19.60
2019-04-26T19:58:32.128Z,19.50
2019-04-26T20:01:01.982Z,19.50
2019-04-26T20:03:32.081Z,19.50
2019-04-26T20:06:01.808Z,19.40
2019-04-26T20:08:35.278Z,19.40
2019-04-26T20:11:01.405Z,19.40
2019-04-26T20:13:31.723Z,19.30
2019-04-26T20:16:02.736Z,19.30
2019-04-26T20:18:32.798Z,19.20
2019-04-26T20:21:02.613Z,19.20
2019-04-26T20:23:33.840Z,19.20
2019-04-26T20:26:07.235Z,19.20
2019-04-26T20:28:35.902Z,19.20
2019-04-26T20:31:13.610Z,19.10
2019-04-26T20:33:42.522Z,19.00
2019-04-26T20:36:11.312Z,19.00
2019-04-26T20:38:43.775Z,18.90
2019-04-26T20:41:13.277Z,18.90
2019-04-26T20:43:46.211Z,18.90
2019-04-26T20:46:15.200Z,18.80
2019-04-26T20:48:42.628Z,18.80
2019-04-26T20:51:12.115Z,18.80
2019-04-26T20:53:43.143Z,18.70
2019-04-26T20:56:18.059Z,18.70
2019-04-26T20:58:43.208Z,18.70
2019-04-26T21:01:14.058Z,18.60
2019-04-26T21:03:46.007Z,18.60
2019-04-26T21:06:13.687Z,18.60
2019-04-26T21:08:42.579Z,18.50
2019-04-26T21:11:13.566Z,18.50
2019-04-26T21:13:41.905Z,18.50
2019-04-26T21:16:15.003Z,18.40
2019-04-26T21:18:44.068Z,18.40
2019-04-26T21:21:12.057Z,18.40
2019-04-26T21:23:42.214Z,18.30
2019-04-26T21:26:16.665Z,18.30
2019-04-26T21:28:47.088Z,18.30
2019-04-26T21:31:20.288Z,18.20
2019-04-26T21:33:50.670Z,18.20
2019-04-26T21:36:22.815Z,18.10
2019-04-26T21:38:59.342Z,18.10
2019-04-26T21:41:28.196Z,18.10
2019-04-26T21:43:56.930Z,18.10
2019-04-26T21:46:27.502Z,18.00
2019-04-26T21:48:56.122Z,18.00
2019-04-26T21:51:24.854Z,17.90
2019-04-26T21:53:53.647Z,17.90
2019-04-26T21:56:23.533Z,17.90
2019-04-26T21:58:53.338Z,17.80
2019-04-26T22:01:23.445Z,17.80
2019-04-26T22:03:55.535Z,17.70
2019-04-26T22:06:26.891Z,17.70
2019-04-26T22:09:13.560Z,17.70
2019-04-26T22:11:44.248Z,17.60
2019-04-26T22:14:21.609Z,17.60
2019-04-26T22:16:57.589Z,17.50
2019-04-26T22:19:36.763Z,17.50
2019-04-26T22:22:09.826Z,17.50
2019-04-26T22:24:40.197Z,17.40
2019-04-26T22:27:08.892Z,17.30
2019-04-26T22:29:37.638Z,17.30
2019-04-26T22:32:06.435Z,17.30
2019-04-26T22:34:37.383Z,17.20
2019-04-26T22:37:11.173Z,17.10
2019-04-26T22:39:39.757Z,17.10
2019-04-26T22:42:06.676Z,17.00
2019-04-26T22:44:53.965Z,17.00
2019-04-26T22:47:24.383Z,17.00
2019-04-26T22:49:53.112Z,17.00
2019-04-26T22:52:23.082Z,16.90
2019-04-26T22:54:53.735Z,16.80
2019-04-26T22:57:23.216Z,16.80
2019-04-26T22:59:53.518Z,16.80
2019-04-26T23:02:26.985Z,16.80
2019-04-26T23:04:56.022Z,16.80
2019-04-26T23:07:26.138Z,16.70
2019-04-26T23:09:55.532Z,16.80
2019-04-26T23:12:35.174Z,16.80
2019-04-26T23:15:24.029Z,16.80
2019-04-26T23:18:08.193Z,16.70
2019-04-26T23:20:39.677Z,16.60
2019-04-26T23:23:08.764Z,16.60
2019-04-26T23:25:37.584Z,16.60
2019-04-26T23:28:06.307Z,16.60
2019-04-26T23:30:35.118Z,16.60
2019-04-26T23:33:04.105Z,16.60
2019-04-26T23:35:37.567Z,16.60
2019-04-26T23:38:05.201Z,16.50
2019-04-26T23:40:33.831Z,16.50
2019-04-26T23:43:02.955Z,16.40
2019-04-26T23:45:33.358Z,16.40
2019-04-26T23:48:03.512Z,16.40
2019-04-26T23:50:34.082Z,16.40
2019-04-26T23:53:03.119Z,16.40
2019-04-26T23:55:33.709Z,16.40
2019-04-26T23:58:05.793Z,16.30
